sensor_id;sensor_type;location;lat;lon;timestamp;temperature;humidity
26907;DHT22;14472;56.880;16.658;2022-09-09T00:01:54;17.50;1.00
26907;DHT22;14472;56.880;16.658;2022-09-09T00:04:35;17.50;1.00
26907;DHT22;14472;56.880;16.658;2022-09-09T00:07:13;17.50;1.00
26907;DHT22;14472;56.880;16.658;2022-09-09T00:09:48;17.50;1.00
26907;DHT22;14472;56.880;16.658;2022-09-09T00:15:22;17.50;1.00
26907;DHT22;14472;56.880;16.658;2022-09-09T00:18:17;17.60;1.00
26907;DHT22;14472;56.880;16.658;2022-09-09T00:20:49;17.60;1.00
26907;DHT22;14472;56.880;16.658;2022-09-09T00:23:25;17.50;1.00
26907;DHT22;14472;56.880;16.658;2022-09-09T00:26:22;17.50;1.00
26907;DHT22;14472;56.880;16.658;2022-09-09T00:31:38;17.50;1.00
26907;DHT22;14472;56.880;16.658;2022-09-09T00:34:23;17.50;1.00
26907;DHT22;14472;56.880;16.658;2022-09-09T00:36:52;17.50;1.00
26907;DHT22;14472;56.880;16.658;2022-09-09T00:39:49;17.50;1.00
26907;DHT22;14472;56.880;16.658;2022-09-09T00:42:40;17.50;1.00
26907;DHT22;14472;56.880;16.658;2022-09-09T00:48:11;17.50;1.00
26907;DHT22;14472;56.880;16.658;2022-09-09T00:50:55;17.50;1.00
26907;DHT22;14472;56.880;16.658;2022-09-09T00:56:14;17.50;1.00
26907;DHT22;14472;56.880;16.658;2022-09-09T00:59:05;17.50;1.00
26907;DHT22;14472;56.880;16.658;2022-09-09T01:01:33;17.40;1.00
26907;DHT22;14472;56.880;16.658;2022-09-09T01:04:01;17.40;1.00
26907;DHT22;14472;56.880;16.658;2022-09-09T01:06:35;17.40;1.00
26907;DHT22;14472;56.880;16.658;2022-09-09T01:17:15;17.50;1.00
26907;DHT22;14472;56.880;16.658;2022-09-09T01:25:04;17.40;1.00
26907;DHT22;14472;56.880;16.658;2022-09-09T01:27:34;17.40;1.00
26907;DHT22;14472;56.880;16.658;2022-09-09T01:30:04;17.40;1.00
26907;DHT22;14472;56.880;16.658;2022-09-09T01:32:52;17.40;1.00
26907;DHT22;14472;56.880;16.658;2022-09-09T01:36:23;17.40;1.00
26907;DHT22;14472;56.880;16.658;2022-09-09T01:38:29;17.40;1.00
26907;DHT22;14472;56.880;16.658;2022-09-09T01:40:56;17.40;1.00
26907;DHT22;14472;56.880;16.658;2022-09-09T01:43:24;17.40;1.00
26907;DHT22;14472;56.880;16.658;2022-09-09T01:45:53;17.40;1.00
26907;DHT22;14472;56.880;16.658;2022-09-09T01:48:21;17.30;1.00
26907;DHT22;14472;56.880;16.658;2022-09-09T01:50:48;17.30;1.00
26907;DHT22;14472;56.880;16.658;2022-09-09T01:53:14;17.30;1.00
26907;DHT22;14472;56.880;16.658;2022-09-09T01:55:58;17.30;1.00
26907;DHT22;14472;56.880;16.658;2022-09-09T01:58:31;17.30;1.00
26907;DHT22;14472;56.880;16.658;2022-09-09T02:04:14;17.20;1.00
26907;DHT22;14472;56.880;16.658;2022-09-09T02:06:45;17.20;1.00
26907;DHT22;14472;56.880;16.658;2022-09-09T02:09:13;17.20;1.00
26907;DHT22;14472;56.880;16.658;2022-09-09T02:11:43;17.20;1.00
26907;DHT22;14472;56.880;16.658;2022-09-09T02:14:12;17.10;1.00
26907;DHT22;14472;56.880;16.658;2022-09-09T02:16:49;17.10;1.00
26907;DHT22;14472;56.880;16.658;2022-09-09T02:19:27;17.20;1.00
26907;DHT22;14472;56.880;16.658;2022-09-09T02:21:59;17.10;1.00
26907;DHT22;14472;56.880;16.658;2022-09-09T02:24:26;17.10;1.00
26907;DHT22;14472;56.880;16.658;2022-09-09T02:26:54;17.10;1.00
26907;DHT22;14472;56.880;16.658;2022-09-09T02:29:31;17.10;1.00
26907;DHT22;14472;56.880;16.658;2022-09-09T02:32:01;17.10;1.00
26907;DHT22;14472;56.880;16.658;2022-09-09T02:34:29;17.10;1.00
26907;DHT22;14472;56.880;16.658;2022-09-09T02:36:57;17.00;1.00
26907;DHT22;14472;56.880;16.658;2022-09-09T02:39:25;17.00;1.00
26907;DHT22;14472;56.880;16.658;2022-09-09T02:41:51;17.10;1.00
26907;DHT22;14472;56.880;16.658;2022-09-09T02:44:18;17.00;1.00
26907;DHT22;14472;56.880;16.658;2022-09-09T02:52:07;17.00;1.00
26907;DHT22;14472;56.880;16.658;2022-09-09T02:54:34;17.00;1.00
26907;DHT22;14472;56.880;16.658;2022-09-09T02:57:27;17.00;1.00
26907;DHT22;14472;56.880;16.658;2022-09-09T02:59:57;17.00;1.00
26907;DHT22;14472;56.880;16.658;2022-09-09T03:02:23;17.00;1.00
26907;DHT22;14472;56.880;16.658;2022-09-09T03:04:49;17.00;1.00
26907;DHT22;14472;56.880;16.658;2022-09-09T03:07:19;17.00;1.00
26907;DHT22;14472;56.880;16.658;2022-09-09T03:09:45;17.00;1.00
26907;DHT22;14472;56.880;16.658;2022-09-09T03:12:11;17.00;1.00
26907;DHT22;14472;56.880;16.658;2022-09-09T03:14:38;16.90;1.00
26907;DHT22;14472;56.880;16.658;2022-09-09T03:17:05;16.90;1.00
26907;DHT22;14472;56.880;16.658;2022-09-09T03:19:31;16.90;1.00
26907;DHT22;14472;56.880;16.658;2022-09-09T03:21:57;17.00;1.00
26907;DHT22;14472;56.880;16.658;2022-09-09T03:24:24;17.00;1.00
26907;DHT22;14472;56.880;16.658;2022-09-09T03:26:50;17.00;1.00
26907;DHT22;14472;56.880;16.658;2022-09-09T03:29:16;16.90;1.00
26907;DHT22;14472;56.880;16.658;2022-09-09T03:31:43;17.00;1.00
26907;DHT22;14472;56.880;16.658;2022-09-09T03:34:10;16.90;1.00
26907;DHT22;14472;56.880;16.658;2022-09-09T03:36:36;16.90;1.00
26907;DHT22;14472;56.880;16.658;2022-09-09T03:39:02;16.90;1.00
26907;DHT22;14472;56.880;16.658;2022-09-09T03:41:29;16.90;1.00
26907;DHT22;14472;56.880;16.658;2022-09-09T03:43:54;16.90;1.00
26907;DHT22;14472;56.880;16.658;2022-09-09T03:46:22;16.90;1.00
26907;DHT22;14472;56.880;16.658;2022-09-09T03:48:48;16.90;1.00
26907;DHT22;14472;56.880;16.658;2022-09-09T03:51:14;16.90;1.00
26907;DHT22;14472;56.880;16.658;2022-09-09T03:53:41;16.90;1.00
26907;DHT22;14472;56.880;16.658;2022-09-09T03:56:07;16.90;1.00
26907;DHT22;14472;56.880;16.658;2022-09-09T03:58:34;17.00;1.00
26907;DHT22;14472;56.880;16.658;2022-09-09T04:01:05;17.00;1.00
26907;DHT22;14472;56.880;16.658;2022-09-09T04:03:32;16.90;1.00
26907;DHT22;14472;56.880;16.658;2022-09-09T04:05:59;16.90;1.00
26907;DHT22;14472;56.880;16.658;2022-09-09T04:08:26;16.90;1.00
26907;DHT22;14472;56.880;16.658;2022-09-09T04:10:52;16.90;1.00
26907;DHT22;14472;56.880;16.658;2022-09-09T04:13:19;16.90;1.00
26907;DHT22;14472;56.880;16.658;2022-09-09T04:15:51;16.90;1.00
26907;DHT22;14472;56.880;16.658;2022-09-09T04:18:17;16.90;1.00
26907;DHT22;14472;56.880;16.658;2022-09-09T04:20:45;16.80;1.00
26907;DHT22;14472;56.880;16.658;2022-09-09T04:23:11;16.80;1.00
26907;DHT22;14472;56.880;16.658;2022-09-09T04:25:37;16.80;1.00
26907;DHT22;14472;56.880;16.658;2022-09-09T04:28:03;16.80;1.00
26907;DHT22;14472;56.880;16.658;2022-09-09T04:30:29;16.80;1.00
26907;DHT22;14472;56.880;16.658;2022-09-09T04:32:54;16.80;1.00
26907;DHT22;14472;56.880;16.658;2022-09-09T04:35:21;16.80;1.00
26907;DHT22;14472;56.880;16.658;2022-09-09T04:37:47;16.80;1.00
26907;DHT22;14472;56.880;16.658;2022-09-09T04:40:14;16.80;1.00
26907;DHT22;14472;56.880;16.658;2022-09-09T04:42:40;16.80;1.00
26907;DHT22;14472;56.880;16.658;2022-09-09T04:45:09;16.80;1.00
26907;DHT22;14472;56.880;16.658;2022-09-09T04:47:36;16.80;1.00
26907;DHT22;14472;56.880;16.658;2022-09-09T04:50:02;16.80;1.00
26907;DHT22;14472;56.880;16.658;2022-09-09T04:52:28;16.80;1.00
26907;DHT22;14472;56.880;16.658;2022-09-09T04:54:54;16.80;1.00
26907;DHT22;14472;56.880;16.658;2022-09-09T04:57:19;16.80;1.00
26907;DHT22;14472;56.880;16.658;2022-09-09T04:59:45;16.80;1.00
26907;DHT22;14472;56.880;16.658;2022-09-09T05:02:11;16.80;1.00
26907;DHT22;14472;56.880;16.658;2022-09-09T05:04:37;16.80;1.00
26907;DHT22;14472;56.880;16.658;2022-09-09T05:07:03;16.80;1.00
26907;DHT22;14472;56.880;16.658;2022-09-09T05:09:28;16.80;1.00
26907;DHT22;14472;56.880;16.658;2022-09-09T05:11:55;16.80;1.00
26907;DHT22;14472;56.880;16.658;2022-09-09T05:14:21;16.80;1.00
26907;DHT22;14472;56.880;16.658;2022-09-09T05:16:48;16.80;1.00
26907;DHT22;14472;56.880;16.658;2022-09-09T05:19:15;16.80;1.00
26907;DHT22;14472;56.880;16.658;2022-09-09T05:21:44;16.90;1.00
26907;DHT22;14472;56.880;16.658;2022-09-09T05:24:10;16.90;1.00
26907;DHT22;14472;56.880;16.658;2022-09-09T05:26:36;16.90;1.00
26907;DHT22;14472;56.880;16.658;2022-09-09T05:29:02;16.90;1.00
26907;DHT22;14472;56.880;16.658;2022-09-09T05:31:30;16.90;1.00
26907;DHT22;14472;56.880;16.658;2022-09-09T05:33:56;17.00;1.00
26907;DHT22;14472;56.880;16.658;2022-09-09T05:36:22;17.00;1.00
26907;DHT22;14472;56.880;16.658;2022-09-09T05:38:49;17.00;1.00
26907;DHT22;14472;56.880;16.658;2022-09-09T05:41:15;17.00;1.00
26907;DHT22;14472;56.880;16.658;2022-09-09T05:43:43;17.00;1.00
26907;DHT22;14472;56.880;16.658;2022-09-09T05:46:15;17.00;1.00
26907;DHT22;14472;56.880;16.658;2022-09-09T05:48:43;17.00;1.00
26907;DHT22;14472;56.880;16.658;2022-09-09T05:51:13;17.10;1.00
26907;DHT22;14472;56.880;16.658;2022-09-09T05:53:41;17.10;1.00
26907;DHT22;14472;56.880;16.658;2022-09-09T05:56:16;17.10;1.00
26907;DHT22;14472;56.880;16.658;2022-09-09T05:58:45;17.20;1.00
26907;DHT22;14472;56.880;16.658;2022-09-09T06:01:17;17.20;1.00
26907;DHT22;14472;56.880;16.658;2022-09-09T06:03:44;17.20;1.00
26907;DHT22;14472;56.880;16.658;2022-09-09T06:06:12;17.30;1.00
26907;DHT22;14472;56.880;16.658;2022-09-09T06:08:40;17.30;1.00
26907;DHT22;14472;56.880;16.658;2022-09-09T06:11:15;17.40;1.00
26907;DHT22;14472;56.880;16.658;2022-09-09T06:13:41;17.40;1.00
26907;DHT22;14472;56.880;16.658;2022-09-09T06:16:12;17.40;1.00
26907;DHT22;14472;56.880;16.658;2022-09-09T06:18:38;17.40;1.00
26907;DHT22;14472;56.880;16.658;2022-09-09T06:21:07;17.40;1.00
26907;DHT22;14472;56.880;16.658;2022-09-09T06:23:34;17.50;1.00
26907;DHT22;14472;56.880;16.658;2022-09-09T06:26:12;17.50;1.00
26907;DHT22;14472;56.880;16.658;2022-09-09T06:28:38;17.50;1.00
26907;DHT22;14472;56.880;16.658;2022-09-09T06:31:06;17.50;1.00
26907;DHT22;14472;56.880;16.658;2022-09-09T06:33:40;17.50;1.00
26907;DHT22;14472;56.880;16.658;2022-09-09T06:36:15;17.60;1.00
26907;DHT22;14472;56.880;16.658;2022-09-09T06:38:41;17.70;1.00
26907;DHT22;14472;56.880;16.658;2022-09-09T06:41:09;17.70;1.00
26907;DHT22;14472;56.880;16.658;2022-09-09T06:43:35;17.70;1.00
26907;DHT22;14472;56.880;16.658;2022-09-09T06:46:16;17.70;1.00
26907;DHT22;14472;56.880;16.658;2022-09-09T06:48:43;17.70;1.00
26907;DHT22;14472;56.880;16.658;2022-09-09T06:51:21;17.70;1.00
26907;DHT22;14472;56.880;16.658;2022-09-09T06:53:50;17.80;1.00
26907;DHT22;14472;56.880;16.658;2022-09-09T06:58:47;17.90;1.00
26907;DHT22;14472;56.880;16.658;2022-09-09T07:01:19;17.90;1.00
26907;DHT22;14472;56.880;16.658;2022-09-09T07:03:48;17.90;1.00
26907;DHT22;14472;56.880;16.658;2022-09-09T07:06:18;18.00;1.00
26907;DHT22;14472;56.880;16.658;2022-09-09T07:08:49;17.90;1.00
26907;DHT22;14472;56.880;16.658;2022-09-09T07:11:15;18.00;1.00
26907;DHT22;14472;56.880;16.658;2022-09-09T07:13:41;18.00;1.00
26907;DHT22;14472;56.880;16.658;2022-09-09T07:16:12;18.00;1.00
26907;DHT22;14472;56.880;16.658;2022-09-09T07:18:42;18.00;1.00
26907;DHT22;14472;56.880;16.658;2022-09-09T07:21:10;18.00;1.00
26907;DHT22;14472;56.880;16.658;2022-09-09T07:23:35;18.00;1.00
26907;DHT22;14472;56.880;16.658;2022-09-09T07:26:02;18.10;1.00
26907;DHT22;14472;56.880;16.658;2022-09-09T07:28:28;18.10;1.00
26907;DHT22;14472;56.880;16.658;2022-09-09T07:30:57;18.00;1.00
26907;DHT22;14472;56.880;16.658;2022-09-09T07:33:24;18.00;1.00
26907;DHT22;14472;56.880;16.658;2022-09-09T07:35:51;18.00;1.00
26907;DHT22;14472;56.880;16.658;2022-09-09T07:38:17;18.00;1.00
26907;DHT22;14472;56.880;16.658;2022-09-09T07:40:44;18.00;1.00
26907;DHT22;14472;56.880;16.658;2022-09-09T07:43:10;18.00;1.00
26907;DHT22;14472;56.880;16.658;2022-09-09T07:45:36;17.90;1.00
26907;DHT22;14472;56.880;16.658;2022-09-09T07:48:02;18.00;1.00
26907;DHT22;14472;56.880;16.658;2022-09-09T07:50:29;18.00;1.00
26907;DHT22;14472;56.880;16.658;2022-09-09T07:52:55;17.90;1.00
26907;DHT22;14472;56.880;16.658;2022-09-09T07:55:22;17.90;1.00
26907;DHT22;14472;56.880;16.658;2022-09-09T07:57:53;18.00;1.00
26907;DHT22;14472;56.880;16.658;2022-09-09T08:00:19;17.90;1.00
26907;DHT22;14472;56.880;16.658;2022-09-09T08:02:47;17.90;1.00
26907;DHT22;14472;56.880;16.658;2022-09-09T08:05:13;18.00;1.00
26907;DHT22;14472;56.880;16.658;2022-09-09T08:07:40;18.00;1.00
26907;DHT22;14472;56.880;16.658;2022-09-09T08:10:06;18.00;1.00
26907;DHT22;14472;56.880;16.658;2022-09-09T08:12:32;18.00;1.00
26907;DHT22;14472;56.880;16.658;2022-09-09T08:14:58;18.00;1.00
26907;DHT22;14472;56.880;16.658;2022-09-09T08:17:23;18.00;1.00
26907;DHT22;14472;56.880;16.658;2022-09-09T08:19:49;18.00;1.00
26907;DHT22;14472;56.880;16.658;2022-09-09T08:22:15;18.00;1.00
26907;DHT22;14472;56.880;16.658;2022-09-09T08:24:41;18.00;1.00
26907;DHT22;14472;56.880;16.658;2022-09-09T08:27:07;18.00;1.00
26907;DHT22;14472;56.880;16.658;2022-09-09T08:29:32;18.10;1.00
26907;DHT22;14472;56.880;16.658;2022-09-09T08:31:58;18.10;1.00
26907;DHT22;14472;56.880;16.658;2022-09-09T08:34:26;18.10;1.00
26907;DHT22;14472;56.880;16.658;2022-09-09T08:36:53;18.10;1.00
26907;DHT22;14472;56.880;16.658;2022-09-09T08:39:20;18.10;1.00
26907;DHT22;14472;56.880;16.658;2022-09-09T08:50:29;18.10;1.00
26907;DHT22;14472;56.880;16.658;2022-09-09T08:53:02;18.10;1.00
26907;DHT22;14472;56.880;16.658;2022-09-09T08:55:54;18.00;1.00
26907;DHT22;14472;56.880;16.658;2022-09-09T08:58:30;18.10;1.00
26907;DHT22;14472;56.880;16.658;2022-09-09T09:09:27;18.20;1.00
26907;DHT22;14472;56.880;16.658;2022-09-09T09:12:00;18.30;1.00
26907;DHT22;14472;56.880;16.658;2022-09-09T09:14:30;18.40;1.00
26907;DHT22;14472;56.880;16.658;2022-09-09T09:19:22;18.50;1.00
26907;DHT22;14472;56.880;16.658;2022-09-09T09:22:03;18.50;1.00
26907;DHT22;14472;56.880;16.658;2022-09-09T09:24:55;18.60;1.00
26907;DHT22;14472;56.880;16.658;2022-09-09T09:27:36;18.50;1.00
26907;DHT22;14472;56.880;16.658;2022-09-09T09:30:17;18.50;1.00
26907;DHT22;14472;56.880;16.658;2022-09-09T09:32:59;18.60;1.00
26907;DHT22;14472;56.880;16.658;2022-09-09T09:35:27;18.60;1.00
26907;DHT22;14472;56.880;16.658;2022-09-09T09:37:53;18.60;1.00
26907;DHT22;14472;56.880;16.658;2022-09-09T09:40:20;18.70;1.00
26907;DHT22;14472;56.880;16.658;2022-09-09T09:45:28;18.70;1.00
26907;DHT22;14472;56.880;16.658;2022-09-09T09:48:05;18.80;1.00
26907;DHT22;14472;56.880;16.658;2022-09-09T09:50:32;18.90;1.00
26907;DHT22;14472;56.880;16.658;2022-09-09T09:53:02;18.80;1.00
26907;DHT22;14472;56.880;16.658;2022-09-09T09:55:33;18.80;1.00
26907;DHT22;14472;56.880;16.658;2022-09-09T09:58:05;18.80;1.00
26907;DHT22;14472;56.880;16.658;2022-09-09T10:00:32;18.80;1.00
26907;DHT22;14472;56.880;16.658;2022-09-09T10:03:00;18.80;1.00
26907;DHT22;14472;56.880;16.658;2022-09-09T10:05:30;18.90;1.00
26907;DHT22;14472;56.880;16.658;2022-09-09T10:08:16;18.90;1.00
26907;DHT22;14472;56.880;16.658;2022-09-09T10:27:23;18.80;1.00
26907;DHT22;14472;56.880;16.658;2022-09-09T10:30:14;18.80;1.00
26907;DHT22;14472;56.880;16.658;2022-09-09T10:35:22;18.90;1.00
26907;DHT22;14472;56.880;16.658;2022-09-09T10:51:51;18.90;1.00
26907;DHT22;14472;56.880;16.658;2022-09-09T10:54:35;18.90;1.00
26907;DHT22;14472;56.880;16.658;2022-09-09T10:57:27;18.80;1.00
26907;DHT22;14472;56.880;16.658;2022-09-09T10:59:55;18.70;1.00
26907;DHT22;14472;56.880;16.658;2022-09-09T11:04:49;18.80;1.00
26907;DHT22;14472;56.880;16.658;2022-09-09T11:07:55;18.70;1.00
26907;DHT22;14472;56.880;16.658;2022-09-09T11:13:57;18.70;1.00
26907;DHT22;14472;56.880;16.658;2022-09-09T11:16:30;18.70;1.00
26907;DHT22;14472;56.880;16.658;2022-09-09T11:27:44;18.60;1.00
26907;DHT22;14472;56.880;16.658;2022-09-09T11:30:22;18.60;1.00
26907;DHT22;14472;56.880;16.658;2022-09-09T11:35:28;18.50;1.00
26907;DHT22;14472;56.880;16.658;2022-09-09T11:38:21;18.50;1.00
26907;DHT22;14472;56.880;16.658;2022-09-09T11:41:03;18.50;1.00
26907;DHT22;14472;56.880;16.658;2022-09-09T11:43:38;18.40;1.00
26907;DHT22;14472;56.880;16.658;2022-09-09T11:46:05;18.40;1.00
26907;DHT22;14472;56.880;16.658;2022-09-09T11:48:38;18.40;1.00
26907;DHT22;14472;56.880;16.658;2022-09-09T11:51:30;18.30;1.00
26907;DHT22;14472;56.880;16.658;2022-09-09T11:53:59;18.30;1.00
26907;DHT22;14472;56.880;16.658;2022-09-09T11:56:32;18.20;1.00
26907;DHT22;14472;56.880;16.658;2022-09-09T11:59:05;18.20;1.00
26907;DHT22;14472;56.880;16.658;2022-09-09T12:01:39;18.20;1.00
26907;DHT22;14472;56.880;16.658;2022-09-09T12:04:30;18.20;1.00
26907;DHT22;14472;56.880;16.658;2022-09-09T12:07:31;18.20;1.00
26907;DHT22;14472;56.880;16.658;2022-09-09T12:09:50;18.20;1.00
26907;DHT22;14472;56.880;16.658;2022-09-09T12:15:02;18.20;1.00
26907;DHT22;14472;56.880;16.658;2022-09-09T12:17:30;18.20;1.00
26907;DHT22;14472;56.880;16.658;2022-09-09T12:20:36;18.20;1.00
26907;DHT22;14472;56.880;16.658;2022-09-09T12:37:26;18.20;1.00
26907;DHT22;14472;56.880;16.658;2022-09-09T12:39:56;18.20;1.00
26907;DHT22;14472;56.880;16.658;2022-09-09T12:42:23;18.20;1.00
26907;DHT22;14472;56.880;16.658;2022-09-09T12:45:00;18.20;1.00
26907;DHT22;14472;56.880;16.658;2022-09-09T12:47:46;18.20;1.00
26907;DHT22;14472;56.880;16.658;2022-09-09T12:52:49;18.20;1.00
26907;DHT22;14472;56.880;16.658;2022-09-09T12:55:38;18.20;1.00
26907;DHT22;14472;56.880;16.658;2022-09-09T12:58:05;18.20;1.00
26907;DHT22;14472;56.880;16.658;2022-09-09T13:00:33;18.20;1.00
26907;DHT22;14472;56.880;16.658;2022-09-09T13:03:01;18.20;1.00
26907;DHT22;14472;56.880;16.658;2022-09-09T13:05:34;18.20;1.00
26907;DHT22;14472;56.880;16.658;2022-09-09T13:08:04;18.20;1.00
26907;DHT22;14472;56.880;16.658;2022-09-09T13:10:36;18.20;1.00
26907;DHT22;14472;56.880;16.658;2022-09-09T13:13:17;18.20;1.00
26907;DHT22;14472;56.880;16.658;2022-09-09T13:16:05;18.30;1.00
26907;DHT22;14472;56.880;16.658;2022-09-09T13:18:35;18.30;1.00
26907;DHT22;14472;56.880;16.658;2022-09-09T13:21:02;18.20;1.00
26907;DHT22;14472;56.880;16.658;2022-09-09T13:23:33;18.20;1.00
26907;DHT22;14472;56.880;16.658;2022-09-09T13:26:24;18.30;1.00
26907;DHT22;14472;56.880;16.658;2022-09-09T13:28:54;18.40;1.00
26907;DHT22;14472;56.880;16.658;2022-09-09T13:31:33;18.40;1.00
26907;DHT22;14472;56.880;16.658;2022-09-09T13:34:22;18.40;1.00
26907;DHT22;14472;56.880;16.658;2022-09-09T13:36:55;18.40;1.00
26907;DHT22;14472;56.880;16.658;2022-09-09T13:39:23;18.50;1.00
26907;DHT22;14472;56.880;16.658;2022-09-09T13:41:49;18.40;1.00
26907;DHT22;14472;56.880;16.658;2022-09-09T13:44:21;18.50;1.00
26907;DHT22;14472;56.880;16.658;2022-09-09T13:47:21;18.50;1.00
26907;DHT22;14472;56.880;16.658;2022-09-09T13:49:46;18.50;1.00
26907;DHT22;14472;56.880;16.658;2022-09-09T13:52:14;18.40;1.00
26907;DHT22;14472;56.880;16.658;2022-09-09T13:54:41;18.40;1.00
26907;DHT22;14472;56.880;16.658;2022-09-09T13:57:23;18.40;1.00
26907;DHT22;14472;56.880;16.658;2022-09-09T13:59:51;18.40;1.00
26907;DHT22;14472;56.880;16.658;2022-09-09T14:02:17;18.40;1.00
26907;DHT22;14472;56.880;16.658;2022-09-09T14:04:44;18.40;1.00
26907;DHT22;14472;56.880;16.658;2022-09-09T14:07:15;18.30;1.00
26907;DHT22;14472;56.880;16.658;2022-09-09T14:09:41;18.40;1.00
26907;DHT22;14472;56.880;16.658;2022-09-09T14:12:13;18.40;1.00
26907;DHT22;14472;56.880;16.658;2022-09-09T14:14:40;18.40;1.00
26907;DHT22;14472;56.880;16.658;2022-09-09T14:17:08;18.40;1.00
26907;DHT22;14472;56.880;16.658;2022-09-09T14:19:35;18.40;1.00
26907;DHT22;14472;56.880;16.658;2022-09-09T14:22:02;18.40;1.00
26907;DHT22;14472;56.880;16.658;2022-09-09T14:24:28;18.30;1.00
26907;DHT22;14472;56.880;16.658;2022-09-09T14:26:55;18.40;1.00
26907;DHT22;14472;56.880;16.658;2022-09-09T14:29:21;18.30;1.00
26907;DHT22;14472;56.880;16.658;2022-09-09T14:31:47;18.30;1.00
26907;DHT22;14472;56.880;16.658;2022-09-09T14:34:13;18.30;1.00
26907;DHT22;14472;56.880;16.658;2022-09-09T14:36:40;18.30;1.00
26907;DHT22;14472;56.880;16.658;2022-09-09T14:39:07;18.20;1.00
26907;DHT22;14472;56.880;16.658;2022-09-09T14:41:33;18.20;1.00
26907;DHT22;14472;56.880;16.658;2022-09-09T14:43:59;18.20;1.00
26907;DHT22;14472;56.880;16.658;2022-09-09T14:46:25;18.20;1.00
26907;DHT22;14472;56.880;16.658;2022-09-09T14:48:52;18.20;1.00
26907;DHT22;14472;56.880;16.658;2022-09-09T14:51:22;18.20;1.00
26907;DHT22;14472;56.880;16.658;2022-09-09T14:53:52;18.10;1.00
26907;DHT22;14472;56.880;16.658;2022-09-09T14:56:22;18.20;1.00
26907;DHT22;14472;56.880;16.658;2022-09-09T14:58:48;18.10;1.00
26907;DHT22;14472;56.880;16.658;2022-09-09T15:01:16;18.10;1.00
26907;DHT22;14472;56.880;16.658;2022-09-09T15:03:48;18.00;1.00
26907;DHT22;14472;56.880;16.658;2022-09-09T15:06:15;18.00;1.00
26907;DHT22;14472;56.880;16.658;2022-09-09T15:08:42;18.00;1.00
26907;DHT22;14472;56.880;16.658;2022-09-09T15:11:10;18.00;1.00
26907;DHT22;14472;56.880;16.658;2022-09-09T15:13:37;18.00;1.00
26907;DHT22;14472;56.880;16.658;2022-09-09T15:16:07;18.00;1.00
26907;DHT22;14472;56.880;16.658;2022-09-09T15:18:34;18.00;1.00
26907;DHT22;14472;56.880;16.658;2022-09-09T15:21:02;17.90;1.00
26907;DHT22;14472;56.880;16.658;2022-09-09T15:23:34;18.00;1.00
26907;DHT22;14472;56.880;16.658;2022-09-09T15:26:00;17.90;1.00
26907;DHT22;14472;56.880;16.658;2022-09-09T15:28:26;17.90;1.00
26907;DHT22;14472;56.880;16.658;2022-09-09T15:30:53;17.90;1.00
26907;DHT22;14472;56.880;16.658;2022-09-09T15:33:20;17.80;1.00
26907;DHT22;14472;56.880;16.658;2022-09-09T15:35:46;17.80;1.00
26907;DHT22;14472;56.880;16.658;2022-09-09T15:38:13;17.80;1.00
26907;DHT22;14472;56.880;16.658;2022-09-09T15:40:39;17.70;1.00
26907;DHT22;14472;56.880;16.658;2022-09-09T15:43:06;17.70;1.00
26907;DHT22;14472;56.880;16.658;2022-09-09T15:45:33;17.70;1.00
26907;DHT22;14472;56.880;16.658;2022-09-09T15:48:02;17.70;1.00
26907;DHT22;14472;56.880;16.658;2022-09-09T15:50:28;17.70;1.00
26907;DHT22;14472;56.880;16.658;2022-09-09T15:52:57;17.70;1.00
26907;DHT22;14472;56.880;16.658;2022-09-09T15:55:22;17.60;1.00
26907;DHT22;14472;56.880;16.658;2022-09-09T15:57:51;17.60;1.00
26907;DHT22;14472;56.880;16.658;2022-09-09T16:00:20;17.60;1.00
26907;DHT22;14472;56.880;16.658;2022-09-09T16:02:47;17.50;1.00
26907;DHT22;14472;56.880;16.658;2022-09-09T16:05:13;17.50;1.00
26907;DHT22;14472;56.880;16.658;2022-09-09T16:07:39;17.50;1.00
26907;DHT22;14472;56.880;16.658;2022-09-09T16:10:05;17.50;1.00
26907;DHT22;14472;56.880;16.658;2022-09-09T16:12:31;17.40;1.00
26907;DHT22;14472;56.880;16.658;2022-09-09T16:14:57;17.30;1.00
26907;DHT22;14472;56.880;16.658;2022-09-09T16:17:22;17.30;1.00
26907;DHT22;14472;56.880;16.658;2022-09-09T16:19:48;17.30;1.00
26907;DHT22;14472;56.880;16.658;2022-09-09T16:22:14;17.30;1.00
26907;DHT22;14472;56.880;16.658;2022-09-09T16:24:40;17.30;1.00
26907;DHT22;14472;56.880;16.658;2022-09-09T16:27:06;17.20;1.00
26907;DHT22;14472;56.880;16.658;2022-09-09T16:29:32;17.20;1.00
26907;DHT22;14472;56.880;16.658;2022-09-09T16:31:58;17.20;1.00
26907;DHT22;14472;56.880;16.658;2022-09-09T16:34:25;17.20;1.00
26907;DHT22;14472;56.880;16.658;2022-09-09T16:36:51;17.20;1.00
26907;DHT22;14472;56.880;16.658;2022-09-09T16:39:20;17.20;1.00
26907;DHT22;14472;56.880;16.658;2022-09-09T16:41:47;17.20;1.00
26907;DHT22;14472;56.880;16.658;2022-09-09T16:44:15;17.20;1.00
26907;DHT22;14472;56.880;16.658;2022-09-09T16:46:45;17.20;1.00
26907;DHT22;14472;56.880;16.658;2022-09-09T16:49:14;17.10;1.00
26907;DHT22;14472;56.880;16.658;2022-09-09T16:51:44;17.10;1.00
26907;DHT22;14472;56.880;16.658;2022-09-09T16:54:10;17.00;1.00
26907;DHT22;14472;56.880;16.658;2022-09-09T16:56:39;17.00;1.00
26907;DHT22;14472;56.880;16.658;2022-09-09T16:59:09;17.00;1.00
26907;DHT22;14472;56.880;16.658;2022-09-09T17:01:37;17.00;1.00
26907;DHT22;14472;56.880;16.658;2022-09-09T17:04:05;17.00;1.00
26907;DHT22;14472;56.880;16.658;2022-09-09T17:06:32;17.10;1.00
26907;DHT22;14472;56.880;16.658;2022-09-09T17:09:04;17.00;1.00
26907;DHT22;14472;56.880;16.658;2022-09-09T17:11:30;17.00;1.00
26907;DHT22;14472;56.880;16.658;2022-09-09T17:13:57;17.00;1.00
26907;DHT22;14472;56.880;16.658;2022-09-09T17:16:28;17.00;1.00
26907;DHT22;14472;56.880;16.658;2022-09-09T17:18:55;16.90;1.00
26907;DHT22;14472;56.880;16.658;2022-09-09T17:21:23;16.90;1.00
26907;DHT22;14472;56.880;16.658;2022-09-09T17:23:51;16.90;1.00
26907;DHT22;14472;56.880;16.658;2022-09-09T17:26:21;16.90;1.00
26907;DHT22;14472;56.880;16.658;2022-09-09T17:28:47;16.90;1.00
26907;DHT22;14472;56.880;16.658;2022-09-09T17:31:15;16.90;1.00
26907;DHT22;14472;56.880;16.658;2022-09-09T17:33:44;16.90;1.00
26907;DHT22;14472;56.880;16.658;2022-09-09T17:36:23;16.90;1.00
26907;DHT22;14472;56.880;16.658;2022-09-09T17:38:49;16.90;1.00
26907;DHT22;14472;56.880;16.658;2022-09-09T17:41:17;16.90;1.00
26907;DHT22;14472;56.880;16.658;2022-09-09T17:43:43;16.90;1.00
26907;DHT22;14472;56.880;16.658;2022-09-09T17:48:39;16.80;1.00
26907;DHT22;14472;56.880;16.658;2022-09-09T17:51:12;16.80;1.00
26907;DHT22;14472;56.880;16.658;2022-09-09T17:53:48;16.90;1.00
26907;DHT22;14472;56.880;16.658;2022-09-09T17:56:16;16.90;1.00
26907;DHT22;14472;56.880;16.658;2022-09-09T17:58:42;16.90;1.00
26907;DHT22;14472;56.880;16.658;2022-09-09T18:01:30;16.90;1.00